createdAt,value
2023-05-03T00:01:14.048Z,12.73
2023-05-03T00:03:40.388Z,12.19
2023-05-03T00:06:11.415Z,12.70
2023-05-03T00:08:37.778Z,12.43
2023-05-03T00:11:04.156Z,12.08
2023-05-03T00:13:30.541Z,11.86
2023-05-03T00:15:56.905Z,11.69
2023-05-03T00:18:23.940Z,12.17
2023-05-03T00:20:51.141Z,12.10
2023-05-03T00:23:17.514Z,12.09
2023-05-03T00:25:44.617Z,12.00
2023-05-03T00:28:11.029Z,12.22
2023-05-03T00:30:37.357Z,12.02
2023-05-03T00:33:03.801Z,11.75
2023-05-03T00:35:30.242Z,11.89
2023-05-03T00:37:56.650Z,11.85
2023-05-03T00:40:22.979Z,11.31
2023-05-03T00:42:49.353Z,11.72
2023-05-03T00:45:15.852Z,11.78
2023-05-03T00:47:43.319Z,11.76
2023-05-03T00:50:11.818Z,11.61
2023-05-03T00:52:39.339Z,11.69
2023-05-03T00:55:07.125Z,11.45
2023-05-03T00:57:33.649Z,11.18
2023-05-03T01:00:00.555Z,11.44
2023-05-03T01:02:28.202Z,11.67
2023-05-03T01:04:55.609Z,11.67
2023-05-03T01:07:45.688Z,11.61
2023-05-03T01:10:46.629Z,11.36
2023-05-03T01:13:33.456Z,11.44
2023-05-03T01:16:23.380Z,10.98
2023-05-03T01:18:53.453Z,11.35
2023-05-03T01:21:22.727Z,11.22
2023-05-03T01:23:59.657Z,11.17
2023-05-03T01:26:27.670Z,10.93
2023-05-03T01:28:55.780Z,11.10
2023-05-03T01:31:46.746Z,11.20
2023-05-03T01:34:33.518Z,11.03
2023-05-03T01:37:03.236Z,11.18
2023-05-03T01:39:36.130Z,10.21
2023-05-03T01:42:04.899Z,10.26
2023-05-03T01:44:32.463Z,10.81
2023-05-03T01:46:58.839Z,10.58
2023-05-03T01:49:25.266Z,10.73
2023-05-03T01:51:51.691Z,10.59
2023-05-03T01:54:18.151Z,10.81
2023-05-03T01:56:45.269Z,10.53
2023-05-03T01:59:11.659Z,10.57
2023-05-03T02:01:38.042Z,10.27
2023-05-03T02:04:04.519Z,10.43
2023-05-03T02:06:31.596Z,10.10
2023-05-03T02:08:58.137Z,10.38
2023-05-03T02:11:24.551Z,10.29
2023-05-03T02:13:50.986Z,10.47
2023-05-03T02:16:18.363Z,10.56
2023-05-03T02:18:44.849Z,10.62
2023-05-03T02:21:11.238Z,10.25
2023-05-03T02:23:37.568Z,10.27
2023-05-03T02:26:03.917Z,10.45
2023-05-03T02:28:30.321Z,10.36
2023-05-03T02:30:56.692Z,9.57
2023-05-03T02:33:23.093Z,10.31
2023-05-03T02:35:49.445Z,10.28
2023-05-03T02:38:16.424Z,10.29
2023-05-03T02:40:42.953Z,10.29
2023-05-03T02:43:09.488Z,10.11
2023-05-03T02:45:36.700Z,9.96
2023-05-03T02:48:03.533Z,10.54
2023-05-03T02:50:29.949Z,10.36
2023-05-03T02:52:56.617Z,10.63
2023-05-03T02:55:22.989Z,10.49
2023-05-03T02:57:49.439Z,10.72
2023-05-03T03:00:16.653Z,10.67
2023-05-03T03:02:43.436Z,10.73
2023-05-03T03:05:10.025Z,10.75
2023-05-03T03:07:37.824Z,10.81
2023-05-03T03:10:04.750Z,10.79
2023-05-03T03:12:31.346Z,10.65
2023-05-03T03:14:57.663Z,10.24
2023-05-03T03:17:24.067Z,9.96
2023-05-03T03:19:50.472Z,10.27
2023-05-03T03:22:16.881Z,10.68
2023-05-03T03:24:43.196Z,10.20
2023-05-03T03:27:09.562Z,10.22
2023-05-03T03:29:35.866Z,10.58
2023-05-03T03:32:02.434Z,10.57
2023-05-03T03:34:29.060Z,10.55
2023-05-03T03:36:56.310Z,10.55
2023-05-03T03:39:22.670Z,10.32
2023-05-03T03:41:49.085Z,10.45
2023-05-03T03:44:15.531Z,10.35
2023-05-03T03:46:41.955Z,10.34
2023-05-03T03:49:08.417Z,9.48
2023-05-03T03:51:34.897Z,10.42
2023-05-03T03:54:01.225Z,10.33
2023-05-03T03:56:27.580Z,10.33
2023-05-03T03:58:53.910Z,10.42
2023-05-03T04:01:20.495Z,10.29
2023-05-03T04:03:49.848Z,9.91
2023-05-03T04:06:24.805Z,9.72
2023-05-03T04:08:51.174Z,9.93
2023-05-03T04:11:17.491Z,9.75
2023-05-03T04:13:43.921Z,9.85
2023-05-03T04:16:10.520Z,9.73
2023-05-03T04:18:36.844Z,9.98
2023-05-03T04:21:03.225Z,9.47
2023-05-03T04:23:29.609Z,9.83
2023-05-03T04:25:57.095Z,9.55
2023-05-03T04:28:23.664Z,9.12
2023-05-03T04:30:50.536Z,9.23
2023-05-03T04:33:17.387Z,9.44
2023-05-03T04:35:43.716Z,9.72
2023-05-03T04:38:10.095Z,9.80
2023-05-03T04:40:37.169Z,9.59
2023-05-03T04:43:03.617Z,9.78
2023-05-03T04:45:29.951Z,9.45
2023-05-03T04:47:56.414Z,9.18
2023-05-03T04:50:22.805Z,9.55
2023-05-03T04:52:49.179Z,10.03
2023-05-03T04:55:15.633Z,10.25
2023-05-03T04:57:42.471Z,10.42
2023-05-03T05:00:12.352Z,10.28
2023-05-03T05:02:38.815Z,10.17
2023-05-03T05:05:05.744Z,10.39
2023-05-03T05:07:32.065Z,10.20
2023-05-03T05:09:58.494Z,10.44
2023-05-03T05:12:24.924Z,10.09
2023-05-03T05:14:51.257Z,10.05
2023-05-03T05:17:17.701Z,10.53
2023-05-03T05:19:44.233Z,10.09
2023-05-03T05:22:10.682Z,10.63
2023-05-03T05:24:37.036Z,10.66
2023-05-03T05:27:03.728Z,10.69
2023-05-03T05:29:30.070Z,9.75
2023-05-03T05:31:56.696Z,10.84
2023-05-03T05:34:23.172Z,11.04
2023-05-03T05:36:50.461Z,10.82
2023-05-03T05:39:17.464Z,11.05
2023-05-03T05:41:43.789Z,11.07
2023-05-03T05:44:10.151Z,10.99
2023-05-03T05:46:36.497Z,10.89
2023-05-03T05:49:02.919Z,10.90
2023-05-03T05:51:30.567Z,10.95
2023-05-03T05:53:57.006Z,11.12
2023-05-03T05:56:23.572Z,11.02
2023-05-03T05:58:49.994Z,11.15
2023-05-03T06:01:16.316Z,11.24
2023-05-03T06:03:42.648Z,11.25
2023-05-03T06:06:09.063Z,11.52
2023-05-03T06:08:36.122Z,11.55
2023-05-03T06:11:02.468Z,11.54
2023-05-03T06:13:28.882Z,11.75
2023-05-03T06:15:55.279Z,11.55
2023-05-03T06:18:21.672Z,11.85
2023-05-03T06:20:51.197Z,11.77
2023-05-03T06:23:17.796Z,11.69
2023-05-03T06:25:46.930Z,11.39
2023-05-03T06:28:13.266Z,11.94
2023-05-03T06:30:39.720Z,11.95
2023-05-03T06:33:06.805Z,12.07
2023-05-03T06:35:33.239Z,12.06
2023-05-03T06:37:59.590Z,12.16
2023-05-03T06:40:27.042Z,12.03
2023-05-03T06:42:53.434Z,12.29
2023-05-03T06:45:19.825Z,12.34
2023-05-03T06:47:46.529Z,12.27
2023-05-03T06:50:13.856Z,12.53
2023-05-03T06:52:40.288Z,12.22
2023-05-03T06:55:07.622Z,12.15
2023-05-03T06:57:33.942Z,12.69
2023-05-03T07:00:00.374Z,12.56
2023-05-03T07:02:27.447Z,12.57
2023-05-03T07:04:53.963Z,12.68
2023-05-03T07:07:20.609Z,12.87
2023-05-03T07:09:47.192Z,12.57
2023-05-03T07:12:13.561Z,12.29
2023-05-03T07:14:40.540Z,12.41
2023-05-03T07:17:07.496Z,13.03
2023-05-03T07:19:34.204Z,13.13
2023-05-03T07:22:02.724Z,13.04
2023-05-03T07:24:29.477Z,13.15
2023-05-03T07:26:58.023Z,13.32
2023-05-03T07:29:24.538Z,13.29
2023-05-03T07:31:53.324Z,13.31
2023-05-03T07:34:19.989Z,13.03
2023-05-03T07:36:46.335Z,13.40
2023-05-03T07:39:12.660Z,13.42
2023-05-03T07:41:39.050Z,13.61
2023-05-03T07:44:05.386Z,13.27
2023-05-03T07:46:35.271Z,13.18
2023-05-03T07:49:04.020Z,13.82
2023-05-03T07:51:31.659Z,13.44
2023-05-03T07:53:58.115Z,13.90
2023-05-03T07:56:27.001Z,13.87
2023-05-03T07:59:04.653Z,13.99
2023-05-03T08:01:35.507Z,14.09
2023-05-03T08:04:01.975Z,14.02
2023-05-03T08:06:28.814Z,14.20
2023-05-03T08:08:55.182Z,14.14
2023-05-03T08:11:21.522Z,14.49
2023-05-03T08:13:47.906Z,14.23
2023-05-03T08:16:14.619Z,14.33
2023-05-03T08:18:41.303Z,14.56
2023-05-03T08:21:09.577Z,14.70
2023-05-03T08:23:36.623Z,14.73
2023-05-03T08:26:04.702Z,14.82
2023-05-03T08:28:31.296Z,15.04
2023-05-03T08:30:57.798Z,15.06
2023-05-03T08:33:24.522Z,14.46
2023-05-03T08:35:50.862Z,15.08
2023-05-03T08:38:17.631Z,15.23
2023-05-03T08:40:48.139Z,15.36
2023-05-03T08:43:16.523Z,15.62
2023-05-03T08:45:42.907Z,15.67
2023-05-03T08:48:09.281Z,15.88
2023-05-03T08:50:41.938Z,15.97
2023-05-03T08:53:09.678Z,15.75
2023-05-03T08:55:36.766Z,15.54
2023-05-03T08:58:10.411Z,16.20
2023-05-03T09:00:36.737Z,16.21
2023-05-03T09:03:04.058Z,15.88
2023-05-03T09:05:32.566Z,16.51
2023-05-03T09:08:16.964Z,16.51
2023-05-03T09:10:43.499Z,16.67
2023-05-03T09:13:10.476Z,16.82
2023-05-03T09:15:37.141Z,16.50
2023-05-03T09:18:20.766Z,17.03
2023-05-03T09:20:52.595Z,17.39
2023-05-03T09:23:31.246Z,17.51
2023-05-03T09:25:58.944Z,17.49
2023-05-03T09:28:25.589Z,17.41
2023-05-03T09:31:04.848Z,17.44
2023-05-03T09:33:31.326Z,17.79
2023-05-03T09:35:59.738Z,17.80
2023-05-03T09:38:28.105Z,17.75
2023-05-03T09:40:54.486Z,17.53
2023-05-03T09:43:20.956Z,18.03
2023-05-03T09:45:47.344Z,17.85
2023-05-03T09:48:14.021Z,17.74
2023-05-03T09:50:42.572Z,18.51
2023-05-03T09:53:10.542Z,18.40
2023-05-03T09:55:38.925Z,18.59
2023-05-03T09:58:06.801Z,18.39
2023-05-03T10:00:38.358Z,18.92
2023-05-03T10:03:10.285Z,18.89
2023-05-03T10:05:51.263Z,19.08
2023-05-03T10:08:33.003Z,18.96
2023-05-03T10:11:00.205Z,18.89
2023-05-03T10:13:28.632Z,18.72
2023-05-03T10:16:06.629Z,19.27
2023-05-03T10:18:34.259Z,19.42
2023-05-03T10:21:14.826Z,19.32
2023-05-03T10:24:13.226Z,19.89
2023-05-03T10:26:41.357Z,19.87
2023-05-03T10:29:37.374Z,20.16
2023-05-03T10:32:05.076Z,20.30
2023-05-03T10:34:36.822Z,20.47
2023-05-03T10:37:09.718Z,20.61
2023-05-03T10:39:37.089Z,20.24
2023-05-03T10:42:07.702Z,20.01
2023-05-03T10:44:51.619Z,21.22
2023-05-03T10:47:21.835Z,21.64
2023-05-03T10:50:08.324Z,22.00
2023-05-03T10:52:38.046Z,23.70
2023-05-03T10:55:20.796Z,25.09
2023-05-03T10:57:48.821Z,26.33
2023-05-03T11:00:38.625Z,27.92
2023-05-03T11:03:18.265Z,28.79
2023-05-03T11:05:47.197Z,28.39
2023-05-03T11:08:17.599Z,28.06
2023-05-03T11:10:45.389Z,28.37
2023-05-03T11:13:12.075Z,28.35
2023-05-03T11:15:39.020Z,28.18
2023-05-03T11:18:11.336Z,28.08
2023-05-03T11:20:38.171Z,27.83
2023-05-03T11:23:05.853Z,27.31
2023-05-03T11:25:33.885Z,27.73
2023-05-03T11:28:01.920Z,27.21
2023-05-03T11:30:29.621Z,26.58
2023-05-03T11:32:56.525Z,26.21
2023-05-03T11:35:27.023Z,26.19
2023-05-03T11:37:54.102Z,26.20
2023-05-03T11:40:21.368Z,26.76
2023-05-03T11:43:00.841Z,26.40
2023-05-03T11:45:32.706Z,25.52
2023-05-03T11:47:59.498Z,26.06
2023-05-03T11:50:55.741Z,26.19
2023-05-03T11:53:24.173Z,26.26
2023-05-03T11:55:53.734Z,25.70
2023-05-03T11:58:24.970Z,26.31
2023-05-03T12:00:53.961Z,26.59
2023-05-03T12:03:24.615Z,26.24
2023-05-03T12:05:54.655Z,26.75
2023-05-03T12:08:23.258Z,26.44
2023-05-03T12:10:53.625Z,25.81
2023-05-03T12:13:34.083Z,26.06
2023-05-03T12:16:11.779Z,25.62
2023-05-03T12:18:48.025Z,26.12
2023-05-03T12:23:46.021Z,25.24
2023-05-03T12:26:14.494Z,25.40
2023-05-03T12:28:41.296Z,25.53
2023-05-03T12:31:08.026Z,25.52
2023-05-03T12:33:37.248Z,26.14
2023-05-03T12:36:09.207Z,25.57
2023-05-03T12:38:37.746Z,26.41
2023-05-03T12:41:06.728Z,25.58
2023-05-03T12:43:36.304Z,26.01
2023-05-03T12:46:31.683Z,26.10
2023-05-03T12:48:54.188Z,26.58
2023-05-03T12:51:25.559Z,26.23
2023-05-03T12:53:55.236Z,26.43
2023-05-03T12:56:24.990Z,24.90
2023-05-03T12:59:14.984Z,25.22
2023-05-03T13:02:40.910Z,25.97
2023-05-03T13:06:59.234Z,25.14
2023-05-03T13:09:37.808Z,25.53
2023-05-03T13:12:14.166Z,25.26
2023-05-03T13:14:42.310Z,26.20
2023-05-03T13:17:09.000Z,25.44
2023-05-03T13:19:36.574Z,25.54
2023-05-03T13:22:02.907Z,25.38
2023-05-03T13:24:29.439Z,25.52
2023-05-03T13:26:55.790Z,25.75
2023-05-03T13:29:22.457Z,26.24
2023-05-03T13:31:48.778Z,25.35
2023-05-03T13:34:15.167Z,25.63
2023-05-03T13:36:41.687Z,24.99
2023-05-03T13:39:10.247Z,25.55
2023-05-03T13:41:40.209Z,25.56
2023-05-03T13:44:07.648Z,25.25
2023-05-03T13:46:37.862Z,25.53
2023-05-03T13:49:07.582Z,26.22
2023-05-03T13:51:34.931Z,26.17
2023-05-03T13:54:03.233Z,26.17
2023-05-03T13:56:30.103Z,26.56
2023-05-03T13:58:57.144Z,26.59
2023-05-03T14:01:24.776Z,26.56
2023-05-03T14:03:52.058Z,26.16
2023-05-03T14:06:20.038Z,25.26
2023-05-03T14:08:47.191Z,25.58
2023-05-03T14:11:17.964Z,25.76
2023-05-03T14:13:56.511Z,25.93
2023-05-03T14:16:39.355Z,26.02
2023-05-03T14:19:09.899Z,25.86
2023-05-03T14:21:36.472Z,25.96
2023-05-03T14:24:02.932Z,25.70
2023-05-03T14:26:29.483Z,25.86
2023-05-03T14:28:56.332Z,25.60
2023-05-03T14:31:22.932Z,25.87
2023-05-03T14:33:49.365Z,26.19
2023-05-03T14:36:15.993Z,26.27
2023-05-03T14:38:42.439Z,26.24
2023-05-03T14:41:09.189Z,25.78
2023-05-03T14:43:35.772Z,26.46
2023-05-03T14:46:02.455Z,26.33
2023-05-03T14:48:28.850Z,25.75
2023-05-03T14:50:56.433Z,26.24
2023-05-03T14:53:23.417Z,25.74
2023-05-03T14:55:49.983Z,25.86
2023-05-03T14:58:16.498Z,26.24
2023-05-03T15:00:43.487Z,26.26
2023-05-03T15:03:11.911Z,26.36
2023-05-03T15:05:46.762Z,25.38
2023-05-03T15:08:19.252Z,25.72
2023-05-03T15:10:46.682Z,26.04
2023-05-03T15:13:14.461Z,25.91
2023-05-03T15:15:43.409Z,25.92
2023-05-03T15:18:10.118Z,25.59
2023-05-03T15:20:36.504Z,26.04
2023-05-03T15:23:04.182Z,26.14
2023-05-03T15:25:31.071Z,26.24
2023-05-03T15:27:57.489Z,26.63
2023-05-03T15:30:23.833Z,26.46
2023-05-03T15:32:51.136Z,26.50
2023-05-03T15:35:18.025Z,26.75
2023-05-03T15:37:44.449Z,26.45
2023-05-03T15:40:12.519Z,26.59
2023-05-03T15:42:39.304Z,26.43
2023-05-03T15:45:07.157Z,26.89
2023-05-03T15:47:33.740Z,26.37
2023-05-03T15:50:00.397Z,26.31
2023-05-03T15:52:26.740Z,26.64
2023-05-03T15:54:54.747Z,26.78
2023-05-03T15:57:21.349Z,27.03
2023-05-03T15:59:48.628Z,27.01
2023-05-03T16:02:15.374Z,25.92
2023-05-03T16:04:41.816Z,26.72
2023-05-03T16:07:08.520Z,26.51
2023-05-03T16:09:35.033Z,26.49
2023-05-03T16:12:02.298Z,26.93
2023-05-03T16:14:28.635Z,26.99
2023-05-03T16:16:55.016Z,26.98
2023-05-03T16:19:21.573Z,26.76
2023-05-03T16:21:48.001Z,26.79
2023-05-03T16:24:14.445Z,26.88
2023-05-03T16:26:41.229Z,26.65
2023-05-03T16:29:07.707Z,26.55
2023-05-03T16:31:34.257Z,26.61
2023-05-03T16:34:01.039Z,26.44
2023-05-03T16:36:27.922Z,26.26
2023-05-03T16:38:54.458Z,25.46
2023-05-03T16:41:21.212Z,25.35
2023-05-03T16:43:47.550Z,25.29
2023-05-03T16:46:13.979Z,25.07
2023-05-03T16:48:40.397Z,24.52
2023-05-03T16:51:06.755Z,23.81
2023-05-03T16:53:33.253Z,23.67
2023-05-03T16:55:59.707Z,23.21
2023-05-03T16:58:26.319Z,23.92
2023-05-03T17:00:53.304Z,23.49
2023-05-03T17:03:19.901Z,23.91
2023-05-03T17:05:46.421Z,23.46
2023-05-03T17:08:13.490Z,23.69
2023-05-03T17:10:39.997Z,22.98
2023-05-03T17:13:06.495Z,23.23
2023-05-03T17:15:32.993Z,23.03
2023-05-03T17:18:01.948Z,22.82
2023-05-03T17:20:30.170Z,23.12
2023-05-03T17:22:56.708Z,22.89
2023-05-03T17:25:23.219Z,22.83
2023-05-03T17:27:51.653Z,22.04
2023-05-03T17:30:21.229Z,22.90
2023-05-03T17:32:48.420Z,23.12
2023-05-03T17:35:14.913Z,22.93
2023-05-03T17:37:41.340Z,22.95
2023-05-03T17:40:08.644Z,23.06
2023-05-03T17:42:35.455Z,22.29
2023-05-03T17:45:05.155Z,23.06
2023-05-03T17:47:35.116Z,21.76
2023-05-03T17:50:04.682Z,22.19
2023-05-03T17:52:32.942Z,21.49
2023-05-03T17:54:59.370Z,21.84
2023-05-03T17:57:26.430Z,22.02
2023-05-03T17:59:52.927Z,22.39
2023-05-03T18:02:19.656Z,21.94
2023-05-03T18:04:46.815Z,21.70
2023-05-03T18:07:13.320Z,21.23
2023-05-03T18:09:40.949Z,21.47
2023-05-03T18:12:09.660Z,22.25
2023-05-03T18:14:37.189Z,21.33
2023-05-03T18:17:05.670Z,21.36
2023-05-03T18:19:36.162Z,21.58
2023-05-03T18:22:02.774Z,20.74
2023-05-03T18:24:29.280Z,21.43
2023-05-03T18:26:58.641Z,21.05
2023-05-03T18:29:25.838Z,20.87
2023-05-03T18:31:54.765Z,20.95
2023-05-03T18:34:21.651Z,21.79
2023-05-03T18:36:49.135Z,21.71
2023-05-03T18:39:17.141Z,20.80
2023-05-03T18:41:43.884Z,21.58
2023-05-03T18:44:10.333Z,21.02
2023-05-03T18:46:39.736Z,20.13
2023-05-03T18:49:09.873Z,20.77
2023-05-03T18:51:36.502Z,20.19
2023-05-03T18:54:05.288Z,20.55
2023-05-03T18:56:32.402Z,20.56
2023-05-03T18:58:59.985Z,20.75
2023-05-03T19:01:29.846Z,20.34
2023-05-03T19:03:56.831Z,20.94
2023-05-03T19:06:23.465Z,20.60
2023-05-03T19:08:50.066Z,20.61
2023-05-03T19:11:17.289Z,19.94
2023-05-03T19:13:47.441Z,20.56
2023-05-03T19:16:15.543Z,20.31
2023-05-03T19:18:42.239Z,19.99
2023-05-03T19:21:12.402Z,20.35
2023-05-03T19:23:38.992Z,19.76
2023-05-03T19:26:06.350Z,18.90
2023-05-03T19:28:33.210Z,19.48
2023-05-03T19:31:05.719Z,20.27
2023-05-03T19:33:32.667Z,19.48
2023-05-03T19:36:08.476Z,20.05
2023-05-03T19:38:38.365Z,20.04
2023-05-03T19:41:14.196Z,19.26
2023-05-03T19:43:41.399Z,19.05
2023-05-03T19:46:07.976Z,19.60
2023-05-03T19:48:35.082Z,19.53
2023-05-03T19:51:02.558Z,19.35
2023-05-03T19:53:29.149Z,19.13
2023-05-03T19:55:56.796Z,18.88
2023-05-03T19:58:23.657Z,18.28
2023-05-03T20:00:50.602Z,19.13
2023-05-03T20:03:17.520Z,18.65
2023-05-03T20:05:44.487Z,19.38
2023-05-03T20:08:11.143Z,18.58
2023-05-03T20:10:37.723Z,19.22
2023-05-03T20:13:04.159Z,18.90
2023-05-03T20:15:31.308Z,19.44
2023-05-03T20:17:58.161Z,19.31
2023-05-03T20:20:24.962Z,18.74
2023-05-03T20:22:51.324Z,19.02
2023-05-03T20:25:18.299Z,18.82
2023-05-03T20:27:44.927Z,19.04
2023-05-03T20:30:11.732Z,19.04
2023-05-03T20:32:41.628Z,18.95
2023-05-03T20:35:11.419Z,18.23
2023-05-03T20:37:40.736Z,18.81
2023-05-03T20:40:07.886Z,18.69
2023-05-03T20:42:34.294Z,18.80
2023-05-03T20:45:00.725Z,18.70
2023-05-03T20:47:27.684Z,18.76
2023-05-03T20:49:54.111Z,18.75
2023-05-03T20:52:20.585Z,18.93
2023-05-03T20:54:47.121Z,18.19
2023-05-03T20:57:15.736Z,17.62
2023-05-03T20:59:44.489Z,18.00
2023-05-03T21:02:11.020Z,18.24
2023-05-03T21:04:38.008Z,18.55
2023-05-03T21:07:04.379Z,17.90
2023-05-03T21:09:31.440Z,17.77
2023-05-03T21:11:58.261Z,18.02
2023-05-03T21:14:26.271Z,18.46
2023-05-03T21:16:52.668Z,18.47
2023-05-03T21:19:19.034Z,18.38
2023-05-03T21:21:45.526Z,18.26
2023-05-03T21:24:11.957Z,17.88
2023-05-03T21:26:38.734Z,17.52
2023-05-03T21:29:05.270Z,17.22
2023-05-03T21:31:31.630Z,17.84
2023-05-03T21:33:58.521Z,17.12
2023-05-03T21:36:25.157Z,17.74
2023-05-03T21:38:52.809Z,17.39
2023-05-03T21:41:19.447Z,17.78
2023-05-03T21:43:46.593Z,17.69
2023-05-03T21:46:13.018Z,16.95
2023-05-03T21:48:40.229Z,17.44
2023-05-03T21:51:06.686Z,17.20
2023-05-03T21:53:33.370Z,17.53
2023-05-03T21:55:59.684Z,17.34
2023-05-03T21:58:26.111Z,17.49
2023-05-03T22:00:52.703Z,17.24
2023-05-03T22:03:19.256Z,17.27
2023-05-03T22:05:48.609Z,16.86
2023-05-03T22:08:17.944Z,17.18
2023-05-03T22:10:45.283Z,17.33
2023-05-03T22:13:12.213Z,17.42
2023-05-03T22:15:38.712Z,17.15
2023-05-03T22:18:05.479Z,17.31
2023-05-03T22:20:32.124Z,17.13
2023-05-03T22:22:58.581Z,17.41
2023-05-03T22:25:27.045Z,17.09
2023-05-03T22:27:54.173Z,17.33
2023-05-03T22:30:20.867Z,16.62
2023-05-03T22:32:47.736Z,17.05
2023-05-03T22:35:14.929Z,17.11
2023-05-03T22:37:41.630Z,17.18
2023-05-03T22:40:09.373Z,16.95
2023-05-03T22:42:35.999Z,16.84
2023-05-03T22:45:02.426Z,16.70
2023-05-03T22:47:28.925Z,16.62
2023-05-03T22:49:55.764Z,16.71
2023-05-03T22:52:22.185Z,16.76
2023-05-03T22:54:48.505Z,16.91
2023-05-03T22:57:14.836Z,16.89
2023-05-03T22:59:45.273Z,16.76
2023-05-03T23:02:11.665Z,16.24
2023-05-03T23:04:37.977Z,16.32
2023-05-03T23:07:04.391Z,16.80
2023-05-03T23:09:30.838Z,16.09
2023-05-03T23:11:57.356Z,15.98
2023-05-03T23:14:23.754Z,16.59
2023-05-03T23:16:50.335Z,16.57
2023-05-03T23:19:16.771Z,15.79
2023-05-03T23:21:43.137Z,16.07
2023-05-03T23:24:09.576Z,15.92
2023-05-03T23:26:35.896Z,16.19
2023-05-03T23:29:02.688Z,16.08
2023-05-03T23:31:31.336Z,15.85
2023-05-03T23:33:59.739Z,15.90
2023-05-03T23:36:26.065Z,15.26
2023-05-03T23:38:52.643Z,15.93
2023-05-03T23:41:19.072Z,15.72
2023-05-03T23:43:45.430Z,15.60
2023-05-03T23:46:11.954Z,15.31
2023-05-03T23:48:38.332Z,15.60
2023-05-03T23:51:04.894Z,15.52
2023-05-03T23:53:31.256Z,15.36
2023-05-03T23:55:57.694Z,15.46
2023-05-03T23:58:24.045Z,15.48
